createdAt,value
2019-03-22T00:04:49.743Z,99.90
2019-03-22T00:10:14.359Z,99.90
2019-03-22T00:15:39.110Z,99.90
2019-03-22T00:21:04.248Z,99.90
2019-03-22T00:26:29.111Z,99.90
2019-03-22T00:31:54.109Z,99.90
2019-03-22T00:37:19.133Z,99.90
2019-03-22T00:42:43.802Z,99.90
2019-03-22T00:48:08.776Z,99.90
2019-03-22T00:53:33.604Z,99.90
2019-03-22T00:58:58.083Z,99.90
2019-03-22T01:04:22.660Z,99.90
2019-03-22T01:09:47.646Z,99.90
2019-03-22T01:15:12.980Z,99.90
2019-03-22T01:20:38.374Z,99.90
2019-03-22T01:26:03.932Z,99.90
2019-03-22T01:31:28.504Z,99.90
2019-03-22T01:36:53.461Z,99.90
2019-03-22T01:42:18.903Z,99.90
2019-03-22T01:47:43.991Z,99.90
2019-03-22T01:53:08.720Z,99.90
2019-03-22T01:58:33.851Z,99.90
2019-03-22T02:03:58.599Z,99.90
2019-03-22T02:09:24.329Z,99.90
2019-03-22T02:14:49.210Z,99.90
2019-03-22T02:20:14.862Z,99.90
2019-03-22T02:25:40.023Z,99.90
2019-03-22T02:31:04.670Z,99.90
2019-03-22T02:36:30.357Z,99.90
2019-03-22T02:41:55.051Z,99.90
2019-03-22T02:47:19.921Z,99.90
2019-03-22T02:52:44.514Z,99.90
2019-03-22T02:58:20.346Z,99.90
2019-03-22T03:03:35.624Z,99.90
2019-03-22T03:09:00.528Z,99.90
2019-03-22T03:14:25.449Z,99.90
2019-03-22T03:19:50.183Z,99.90
2019-03-22T03:25:15.813Z,99.90
2019-03-22T03:30:40.636Z,99.90
2019-03-22T03:36:05.349Z,99.90
2019-03-22T03:41:30.275Z,99.90
2019-03-22T03:46:55.031Z,99.90
2019-03-22T03:52:39.457Z,99.90
2019-03-22T03:58:03.334Z,99.90
2019-03-22T04:03:28.401Z,99.90
2019-03-22T04:08:53.142Z,99.90
2019-03-22T04:14:18.638Z,99.90
2019-03-22T04:19:43.856Z,99.90
2019-03-22T04:25:09.395Z,99.90
2019-03-22T04:30:34.697Z,99.90
2019-03-22T04:35:59.289Z,99.90
2019-03-22T04:41:24.163Z,99.90
2019-03-22T04:46:49.422Z,99.90
2019-03-22T04:52:15.492Z,99.90
2019-03-22T04:57:40.071Z,99.90
2019-03-22T05:03:06.846Z,99.90
2019-03-22T05:08:34.957Z,99.90
2019-03-22T05:14:02.711Z,99.90
2019-03-22T05:19:30.252Z,99.90
2019-03-22T05:24:56.986Z,99.90
2019-03-22T05:31:11.256Z,99.90
2019-03-22T05:36:36.179Z,99.90
2019-03-22T05:42:00.609Z,99.90
2019-03-22T05:47:25.510Z,99.90
2019-03-22T05:52:52.694Z,99.90
2019-03-22T05:58:16.994Z,99.90
2019-03-22T06:03:42.162Z,99.90
2019-03-22T06:09:09.575Z,99.90
2019-03-22T06:14:34.412Z,99.90
2019-03-22T06:19:59.399Z,99.90
2019-03-22T06:25:24.045Z,99.90
2019-03-22T06:30:49.543Z,99.90
2019-03-22T06:36:14.228Z,99.90
2019-03-22T06:41:39.607Z,99.90
2019-03-22T06:47:04.459Z,99.90
2019-03-22T06:52:29.343Z,99.90
2019-03-22T06:57:54.467Z,99.90
2019-03-22T07:03:20.096Z,99.90
2019-03-22T07:08:44.588Z,99.90
2019-03-22T07:14:09.911Z,99.90
2019-03-22T07:19:34.627Z,99.90
2019-03-22T07:24:59.471Z,99.90
2019-03-22T07:30:24.322Z,99.90
2019-03-22T07:35:49.797Z,99.90
2019-03-22T07:41:15.203Z,99.90
2019-03-22T07:46:40.347Z,99.90
2019-03-22T07:52:05.205Z,99.90
2019-03-22T07:57:30.350Z,99.90
2019-03-22T08:02:55.210Z,99.90
2019-03-22T08:08:19.843Z,99.90
2019-03-22T08:13:44.672Z,99.90
2019-03-22T08:19:09.515Z,99.90
2019-03-22T08:24:34.397Z,99.90
2019-03-22T08:29:59.137Z,99.90
2019-03-22T08:35:23.906Z,99.90
2019-03-22T08:40:48.797Z,99.90
2019-03-22T08:46:13.895Z,99.90
2019-03-22T08:51:38.586Z,99.90
2019-03-22T08:57:02.851Z,99.90
2019-03-22T09:02:27.564Z,99.90
2019-03-22T09:07:52.526Z,99.90
2019-03-22T09:13:17.410Z,99.90
2019-03-22T09:18:42.459Z,99.90
2019-03-22T09:24:07.793Z,99.90
2019-03-22T09:29:32.938Z,99.90
2019-03-22T09:34:59.727Z,99.90
2019-03-22T09:40:23.608Z,99.90
2019-03-22T09:45:48.525Z,99.90
2019-03-22T09:51:13.428Z,99.90
2019-03-22T09:56:46.754Z,99.90
2019-03-22T10:02:04.715Z,99.90
2019-03-22T10:07:30.007Z,99.90
2019-03-22T10:12:54.895Z,99.90
2019-03-22T10:18:19.626Z,99.90
2019-03-22T10:23:44.037Z,99.90
2019-03-22T10:29:09.318Z,99.90
2019-03-22T10:34:34.530Z,99.90
2019-03-22T10:39:59.508Z,99.90
2019-03-22T10:45:24.245Z,99.90
2019-03-22T10:50:48.802Z,99.90
2019-03-22T10:56:14.150Z,99.90
2019-03-22T11:01:48.488Z,99.90
2019-03-22T11:07:07.065Z,99.90
2019-03-22T11:12:31.903Z,99.90
2019-03-22T11:17:56.493Z,99.90
2019-03-22T11:23:21.812Z,99.90
2019-03-22T11:28:46.898Z,99.90
2019-03-22T11:34:11.823Z,99.90
2019-03-22T11:39:36.792Z,99.90
2019-03-22T11:45:02.142Z,99.90
2019-03-22T11:50:28.872Z,99.90
2019-03-22T11:55:53.309Z,99.90
2019-03-22T12:01:20.426Z,99.90
2019-03-22T12:06:44.401Z,99.90
2019-03-22T12:12:09.295Z,99.90
2019-03-22T12:17:33.874Z,99.90
2019-03-22T12:22:58.347Z,99.90
2019-03-22T12:28:23.743Z,99.90
2019-03-22T12:33:48.262Z,99.80
2019-03-22T12:39:12.788Z,99.90
2019-03-22T12:44:37.434Z,99.50
2019-03-22T12:50:02.511Z,99.90
2019-03-22T12:55:28.045Z,99.90
2019-03-22T13:00:52.983Z,99.90
2019-03-22T13:06:18.171Z,96.90
2019-03-22T13:11:43.291Z,97.40
2019-03-22T13:17:07.942Z,96.00
2019-03-22T13:22:32.928Z,95.00
2019-03-22T13:27:57.874Z,93.90
2019-03-22T13:33:23.225Z,93.90
2019-03-22T13:38:47.718Z,95.50
2019-03-22T13:44:12.924Z,95.10
2019-03-22T13:49:38.613Z,95.40
2019-03-22T13:55:03.581Z,94.20
2019-03-22T14:00:28.340Z,96.50
2019-03-22T14:05:53.325Z,96.50
2019-03-22T14:11:17.999Z,95.00
2019-03-22T14:16:42.526Z,95.30
2019-03-22T14:22:09.890Z,94.10
2019-03-22T14:27:34.748Z,92.30
2019-03-22T14:32:59.343Z,92.60
2019-03-22T14:38:24.501Z,91.70
2019-03-22T14:43:49.475Z,92.70
2019-03-22T14:49:14.535Z,94.00
2019-03-22T14:54:39.451Z,93.80
2019-03-22T15:00:04.576Z,95.30
2019-03-22T15:05:29.393Z,97.60
2019-03-22T15:10:54.823Z,99.00
2019-03-22T15:16:37.651Z,97.10
2019-03-22T15:22:27.266Z,96.00
2019-03-22T15:28:10.667Z,96.30
2019-03-22T15:33:44.860Z,94.70
2019-03-22T15:39:38.430Z,96.30
2019-03-22T15:45:03.021Z,94.70
2019-03-22T15:50:28.125Z,94.00
2019-03-22T15:55:52.839Z,93.00
2019-03-22T16:01:17.798Z,91.90
2019-03-22T16:06:42.844Z,91.70
2019-03-22T16:12:08.040Z,91.00
2019-03-22T16:17:33.071Z,92.00
2019-03-22T16:23:15.665Z,92.70
2019-03-22T16:28:40.534Z,92.60
2019-03-22T16:34:05.882Z,92.90
2019-03-22T16:39:31.100Z,93.00
2019-03-22T16:44:55.811Z,94.10
2019-03-22T16:50:25.140Z,96.60
2019-03-22T16:55:50.715Z,96.40
2019-03-22T17:01:16.134Z,98.80
2019-03-22T17:06:41.352Z,98.30
2019-03-22T17:12:06.698Z,97.50
2019-03-22T17:17:31.778Z,96.60
2019-03-22T17:22:56.695Z,98.30
2019-03-22T17:28:21.555Z,97.50
2019-03-22T17:33:48.195Z,96.80
2019-03-22T17:39:12.733Z,96.20
2019-03-22T17:44:37.459Z,95.70
2019-03-22T17:50:02.618Z,95.50
2019-03-22T17:55:27.771Z,95.30
2019-03-22T18:00:53.027Z,95.30
2019-03-22T18:06:19.428Z,94.90
2019-03-22T18:11:44.426Z,94.10
2019-03-22T18:17:09.722Z,94.20
2019-03-22T18:22:35.069Z,94.30
2019-03-22T18:27:59.941Z,94.50
2019-03-22T18:33:25.167Z,94.30
2019-03-22T18:38:49.960Z,94.30
2019-03-22T18:44:14.501Z,93.90
2019-03-22T18:49:39.366Z,94.10
2019-03-22T18:55:04.904Z,93.60
2019-03-22T19:00:30.227Z,94.60
2019-03-22T19:05:55.396Z,94.60
2019-03-22T19:11:20.215Z,94.40
2019-03-22T19:16:45.407Z,95.00
2019-03-22T19:22:10.026Z,95.00
2019-03-22T19:27:34.864Z,93.50
2019-03-22T19:33:00.422Z,94.20
2019-03-22T19:38:26.237Z,93.30
2019-03-22T19:43:50.459Z,93.40
2019-03-22T19:49:16.087Z,93.80
2019-03-22T19:54:41.960Z,93.90
2019-03-22T20:00:07.921Z,94.80
2019-03-22T20:05:34.027Z,94.60
2019-03-22T20:10:59.360Z,94.30
2019-03-22T20:16:24.228Z,93.70
2019-03-22T20:21:48.811Z,94.40
2019-03-22T20:27:13.654Z,94.90
2019-03-22T20:32:39.286Z,94.70
2019-03-22T20:38:04.575Z,95.60
2019-03-22T20:43:29.285Z,95.60
2019-03-22T20:48:54.479Z,95.20
2019-03-22T20:54:19.640Z,95.50
2019-03-22T20:59:44.336Z,95.60
2019-03-22T21:05:09.326Z,95.80
2019-03-22T21:10:34.253Z,96.20
2019-03-22T21:15:59.419Z,96.70
2019-03-22T21:21:35.655Z,96.80
2019-03-22T21:26:50.803Z,97.20
2019-03-22T21:32:15.994Z,96.70
2019-03-22T21:37:41.135Z,97.10
2019-03-22T21:43:06.157Z,97.10
2019-03-22T21:48:31.199Z,97.80
2019-03-22T21:53:56.125Z,97.80
2019-03-22T21:59:20.712Z,98.20
2019-03-22T22:04:45.347Z,98.50
2019-03-22T22:10:10.530Z,99.10
2019-03-22T22:15:36.115Z,98.20
2019-03-22T22:21:01.571Z,98.50
2019-03-22T22:26:26.628Z,98.60
2019-03-22T22:31:51.027Z,98.80
2019-03-22T22:37:15.859Z,99.30
2019-03-22T22:42:40.731Z,99.20
2019-03-22T22:48:05.940Z,98.80
2019-03-22T22:53:31.264Z,98.30
2019-03-22T22:58:56.052Z,98.10
2019-03-22T23:04:21.019Z,97.90
2019-03-22T23:09:45.979Z,97.90
2019-03-22T23:15:11.943Z,98.20
2019-03-22T23:20:36.431Z,98.30
2019-03-22T23:26:01.228Z,98.40
2019-03-22T23:31:26.106Z,97.60
2019-03-22T23:36:50.996Z,97.30
2019-03-22T23:42:15.514Z,96.60
2019-03-22T23:47:40.850Z,96.70
2019-03-22T23:53:05.563Z,97.00
2019-03-22T23:58:30.475Z,97.10
